createdAt,value
2018-03-03T00:01:26.309Z,1.30
2018-03-03T00:03:52.257Z,1.30
2018-03-03T00:06:18.349Z,1.30
2018-03-03T00:08:44.300Z,1.30
2018-03-03T00:11:10.231Z,1.30
2018-03-03T00:13:36.952Z,1.20
2018-03-03T00:16:02.912Z,1.20
2018-03-03T00:18:29.646Z,1.30
2018-03-03T00:20:56.337Z,1.30
2018-03-03T00:23:22.287Z,1.30
2018-03-03T00:25:48.381Z,1.30
2018-03-03T00:28:14.315Z,1.20
2018-03-03T00:30:40.320Z,1.10
2018-03-03T00:33:06.257Z,1.10
2018-03-03T00:35:32.505Z,1.10
2018-03-03T00:37:58.488Z,1.20
2018-03-03T00:40:24.431Z,1.20
2018-03-03T00:42:50.553Z,1.20
2018-03-03T00:45:16.493Z,1.10
2018-03-03T00:47:42.473Z,1.10
2018-03-03T00:50:08.433Z,1.10
2018-03-03T00:52:34.368Z,1.00
2018-03-03T00:55:01.086Z,0.90
2018-03-03T00:57:27.058Z,0.90
2018-03-03T00:59:53.151Z,0.90
2018-03-03T01:02:19.090Z,0.90
2018-03-03T01:04:45.811Z,0.80
2018-03-03T01:07:11.767Z,0.80
2018-03-03T01:09:37.869Z,0.70
2018-03-03T01:12:04.552Z,0.70
2018-03-03T01:14:30.495Z,0.60
2018-03-03T01:16:56.459Z,0.60
2018-03-03T01:19:23.160Z,0.30
2018-03-03T01:21:49.128Z,0.30
2018-03-03T01:24:15.068Z,0.30
2018-03-03T01:26:41.140Z,0.30
2018-03-03T01:29:07.071Z,0.30
2018-03-03T01:31:32.992Z,0.30
2018-03-03T01:33:59.071Z,0.30
2018-03-03T01:36:25.012Z,0.30
2018-03-03T01:38:50.979Z,0.20
2018-03-03T01:41:17.069Z,0.10
2018-03-03T01:43:43.047Z,0.10
2018-03-03T01:46:09.011Z,0.10
2018-03-03T01:48:35.077Z,0.10
2018-03-03T01:51:01.013Z,0.10
2018-03-03T01:53:26.980Z,0.10
2018-03-03T01:55:52.917Z,0.10
2018-03-03T01:58:18.864Z,0.10
2018-03-03T02:00:44.843Z,0.10
2018-03-03T02:03:10.768Z,0.10
2018-03-03T02:05:36.875Z,0.10
2018-03-03T02:08:02.807Z,-0.10
2018-03-03T02:10:28.765Z,-0.10
2018-03-03T02:12:55.436Z,-0.10
2018-03-03T02:15:21.404Z,-0.10
2018-03-03T02:17:47.337Z,-0.10
2018-03-03T02:20:14.163Z,-0.20
2018-03-03T02:22:40.121Z,-0.20
2018-03-03T02:25:06.040Z,-0.20
2018-03-03T02:27:32.000Z,-0.20
2018-03-03T02:29:57.938Z,-0.20
2018-03-03T02:32:24.029Z,-0.20
2018-03-03T02:34:50.129Z,-0.20
2018-03-03T02:37:16.796Z,-0.40
2018-03-03T02:39:42.789Z,-0.40
2018-03-03T02:42:09.508Z,-0.50
2018-03-03T02:44:35.467Z,-0.50
2018-03-03T02:47:01.408Z,-0.50
2018-03-03T02:49:27.411Z,-0.40
2018-03-03T02:51:53.357Z,-0.40
2018-03-03T02:54:19.296Z,-0.50
2018-03-03T02:56:45.384Z,-0.50
2018-03-03T02:59:11.333Z,-0.40
2018-03-03T03:01:37.304Z,-0.40
2018-03-03T03:04:03.977Z,-0.50
2018-03-03T03:06:30.076Z,-0.50
2018-03-03T03:08:56.024Z,-0.50
2018-03-03T03:11:22.078Z,-0.50
2018-03-03T03:13:48.036Z,-0.50
2018-03-03T03:16:14.727Z,-0.50
2018-03-03T03:18:40.679Z,-0.50
2018-03-03T03:21:07.372Z,-0.60
2018-03-03T03:23:33.357Z,-0.60
2018-03-03T03:26:00.047Z,-0.60
2018-03-03T03:28:26.125Z,-0.60
2018-03-03T03:30:52.796Z,-0.80
2018-03-03T03:33:18.754Z,-0.80
2018-03-03T03:35:44.757Z,-0.90
2018-03-03T03:38:10.644Z,-0.90
2018-03-03T03:40:36.587Z,-0.90
2018-03-03T03:43:02.676Z,-0.90
2018-03-03T03:45:29.401Z,-1.00
2018-03-03T03:47:56.103Z,-1.00
2018-03-03T03:50:22.075Z,-1.00
2018-03-03T03:52:48.744Z,-0.90
2018-03-03T03:55:14.833Z,-0.90
2018-03-03T03:57:41.508Z,-0.70
2018-03-03T04:00:07.483Z,-0.80
2018-03-03T04:02:34.168Z,-0.70
2018-03-03T04:05:00.107Z,-0.60
2018-03-03T04:07:26.085Z,-0.60
2018-03-03T04:09:52.748Z,-0.60
2018-03-03T04:12:18.819Z,-0.60
2018-03-03T04:14:44.753Z,-0.70
2018-03-03T04:17:11.484Z,-0.70
2018-03-03T04:19:37.425Z,-0.70
2018-03-03T04:22:04.133Z,-0.70
2018-03-03T04:24:30.067Z,-0.70
2018-03-03T04:26:56.001Z,-0.70
2018-03-03T04:29:22.714Z,-0.70
2018-03-03T04:31:48.651Z,-0.70
2018-03-03T04:34:14.751Z,-0.70
2018-03-03T04:36:40.835Z,-0.70
2018-03-03T04:39:06.809Z,-0.70
2018-03-03T04:41:32.768Z,-0.70
2018-03-03T04:43:58.736Z,-0.70
2018-03-03T04:46:24.697Z,-0.70
2018-03-03T04:48:51.405Z,-0.80
2018-03-03T04:51:17.484Z,-0.80
2018-03-03T04:53:43.428Z,-0.80
2018-03-03T04:56:09.399Z,-0.80
2018-03-03T04:58:36.071Z,-0.90
2018-03-03T05:01:02.036Z,-0.90
2018-03-03T05:03:27.979Z,-1.00
2018-03-03T05:05:54.655Z,-0.90
2018-03-03T05:08:20.731Z,-0.90
2018-03-03T05:10:46.664Z,-0.80
2018-03-03T05:13:13.367Z,-0.80
2018-03-03T05:15:39.295Z,-0.80
2018-03-03T05:18:05.251Z,-0.80
2018-03-03T05:20:31.948Z,-0.90
2018-03-03T05:22:58.025Z,-0.90
2018-03-03T05:25:24.702Z,-0.90
2018-03-03T05:27:50.639Z,-1.00
2018-03-03T05:30:16.601Z,-0.90
2018-03-03T05:32:43.296Z,-1.00
2018-03-03T05:35:09.277Z,-1.00
2018-03-03T05:37:35.207Z,-1.00
2018-03-03T05:40:01.213Z,-1.10
2018-03-03T05:42:27.886Z,-1.20
2018-03-03T05:45:01.584Z,-1.20
2018-03-03T05:47:27.559Z,-1.20
2018-03-03T05:49:53.523Z,-1.20
2018-03-03T05:52:19.455Z,-1.30
2018-03-03T05:54:45.416Z,-1.30
2018-03-03T05:57:11.483Z,-1.20
2018-03-03T05:59:37.422Z,-1.20
2018-03-03T06:02:03.400Z,-1.30
2018-03-03T06:04:30.091Z,-1.30
2018-03-03T06:06:56.028Z,-1.30
2018-03-03T06:09:22.125Z,-1.30
2018-03-03T06:11:48.064Z,-1.30
2018-03-03T06:14:14.027Z,-1.30
2018-03-03T06:16:40.708Z,-1.40
2018-03-03T06:19:06.655Z,-1.40
2018-03-03T06:21:32.583Z,-1.40
2018-03-03T06:23:58.588Z,-1.40
2018-03-03T06:26:24.549Z,-1.40
2018-03-03T06:28:50.467Z,-1.40
2018-03-03T06:31:17.284Z,-1.40
2018-03-03T06:33:43.212Z,-1.40
2018-03-03T06:36:09.185Z,-1.40
2018-03-03T06:38:35.113Z,-1.50
2018-03-03T06:41:01.136Z,-1.50
2018-03-03T06:43:27.072Z,-1.40
2018-03-03T06:45:53.067Z,-1.40
2018-03-03T06:48:19.007Z,-1.40
2018-03-03T06:50:44.960Z,-1.30
2018-03-03T06:53:10.924Z,-1.20
2018-03-03T06:55:37.599Z,-1.30
2018-03-03T06:58:03.687Z,-1.30
2018-03-03T07:00:30.375Z,-1.40
2018-03-03T07:02:56.379Z,-1.40
2018-03-03T07:05:22.328Z,-1.30
2018-03-03T07:07:48.279Z,-1.30
2018-03-03T07:10:14.993Z,-1.30
2018-03-03T07:12:40.966Z,-1.30
2018-03-03T07:15:06.917Z,-1.30
2018-03-03T07:17:32.923Z,-1.30
2018-03-03T07:19:58.852Z,-1.30
2018-03-03T07:22:24.888Z,-1.30
2018-03-03T07:24:50.789Z,-1.30
2018-03-03T07:27:16.744Z,-1.20
2018-03-03T07:29:42.667Z,-1.20
2018-03-03T07:32:08.640Z,-1.20
2018-03-03T07:34:34.607Z,-1.20
2018-03-03T07:37:00.558Z,-1.10
2018-03-03T07:39:27.314Z,-1.10
2018-03-03T07:41:54.157Z,-1.00
2018-03-03T07:44:20.133Z,-1.10
2018-03-03T07:46:46.059Z,-1.00
2018-03-03T07:49:12.040Z,-1.00
2018-03-03T07:51:38.028Z,-1.00
2018-03-03T07:54:04.704Z,-0.90
2018-03-03T07:56:30.696Z,-0.90
2018-03-03T07:58:57.405Z,-0.70
2018-03-03T08:01:23.372Z,-0.60
2018-03-03T08:03:49.304Z,-0.60
2018-03-03T08:06:15.320Z,-0.60
2018-03-03T08:08:41.279Z,-0.50
2018-03-03T08:11:07.307Z,-0.50
2018-03-03T08:13:33.241Z,-0.40
2018-03-03T08:15:59.200Z,-0.30
2018-03-03T08:18:25.924Z,-0.20
2018-03-03T08:20:51.903Z,-0.20
2018-03-03T08:23:17.860Z,-0.20
2018-03-03T08:25:43.800Z,-0.10
2018-03-03T08:28:09.885Z,0.00
2018-03-03T08:30:35.849Z,0.00
2018-03-03T08:33:02.561Z,0.00
2018-03-03T08:35:28.686Z,0.00
2018-03-03T08:37:54.673Z,0.00
2018-03-03T08:40:20.624Z,-0.10
2018-03-03T08:42:46.627Z,0.00
2018-03-03T08:45:12.627Z,0.00
2018-03-03T08:47:38.576Z,0.00
2018-03-03T08:50:04.672Z,0.20
2018-03-03T08:52:30.623Z,0.40
2018-03-03T08:54:56.620Z,0.50
2018-03-03T08:57:22.561Z,0.60
2018-03-03T08:59:48.529Z,0.70
2018-03-03T09:02:15.258Z,1.00
2018-03-03T09:04:41.242Z,1.00
2018-03-03T09:07:07.348Z,1.20
2018-03-03T09:09:33.301Z,1.30
2018-03-03T09:11:59.276Z,1.50
2018-03-03T09:14:25.245Z,1.70
2018-03-03T09:16:51.231Z,2.10
2018-03-03T09:19:17.441Z,2.50
2018-03-03T09:21:43.436Z,3.10
2018-03-03T09:24:09.477Z,3.70
2018-03-03T09:26:36.218Z,4.60
2018-03-03T09:29:05.185Z,4.90
2018-03-03T09:31:32.314Z,5.10
2018-03-03T09:33:58.765Z,5.10
2018-03-03T09:36:25.782Z,5.40
2018-03-03T09:38:51.787Z,5.60
2018-03-03T09:41:17.913Z,5.90
2018-03-03T09:43:43.904Z,6.00
2018-03-03T09:46:09.943Z,6.10
2018-03-03T09:48:35.903Z,6.10
2018-03-03T09:51:02.064Z,6.10
2018-03-03T09:53:28.080Z,6.10
2018-03-03T09:55:54.109Z,6.00
2018-03-03T09:58:20.886Z,5.60
2018-03-03T10:00:47.033Z,5.60
2018-03-03T10:03:13.029Z,5.40
2018-03-03T10:05:44.787Z,4.90
2018-03-03T10:08:11.105Z,4.90
2018-03-03T10:10:40.370Z,4.80
2018-03-03T10:13:06.685Z,4.80
2018-03-03T10:15:32.895Z,4.70
2018-03-03T10:17:58.838Z,4.60
2018-03-03T10:20:26.523Z,4.70
2018-03-03T10:22:54.313Z,4.60
2018-03-03T10:25:22.453Z,4.50
2018-03-03T10:27:49.984Z,4.50
2018-03-03T10:30:17.112Z,4.40
2018-03-03T10:32:43.781Z,4.40
2018-03-03T10:35:09.825Z,4.50
2018-03-03T10:37:36.313Z,4.60
2018-03-03T10:40:02.377Z,4.70
2018-03-03T10:42:28.545Z,4.90
2018-03-03T10:44:54.521Z,5.10
2018-03-03T10:47:20.964Z,5.10
2018-03-03T10:49:47.096Z,5.10
2018-03-03T10:52:13.117Z,5.20
2018-03-03T10:54:39.144Z,5.40
2018-03-03T10:57:05.117Z,5.50
2018-03-03T10:59:31.103Z,5.70
2018-03-03T11:01:57.111Z,5.80
2018-03-03T11:04:23.067Z,5.90
2018-03-03T11:06:49.060Z,6.00
2018-03-03T11:09:15.036Z,6.20
2018-03-03T11:11:41.184Z,6.30
2018-03-03T11:14:07.258Z,6.40
2018-03-03T11:16:33.251Z,6.70
2018-03-03T11:18:59.418Z,6.70
2018-03-03T11:21:25.434Z,6.80
2018-03-03T11:23:52.286Z,6.90
2018-03-03T11:26:18.404Z,6.90
2018-03-03T11:28:44.627Z,7.00
2018-03-03T11:31:12.613Z,7.10
2018-03-03T11:33:38.681Z,7.10
2018-03-03T11:36:04.840Z,7.10
2018-03-03T11:38:31.644Z,7.20
2018-03-03T11:41:00.815Z,7.20
2018-03-03T11:43:27.429Z,7.40
2018-03-03T11:46:00.634Z,8.00
2018-03-03T11:48:29.810Z,8.00
2018-03-03T11:50:57.989Z,8.40
2018-03-03T11:53:24.774Z,8.30
2018-03-03T11:55:54.667Z,8.60
2018-03-03T11:58:22.772Z,8.80
2018-03-03T12:00:48.920Z,8.80
2018-03-03T12:03:16.681Z,8.90
2018-03-03T12:05:45.105Z,9.00
2018-03-03T12:08:12.429Z,9.10
2018-03-03T12:10:38.745Z,9.20
2018-03-03T12:13:05.836Z,9.20
2018-03-03T12:15:33.291Z,9.30
2018-03-03T12:18:01.173Z,9.30
2018-03-03T12:20:28.606Z,9.50
2018-03-03T12:22:54.727Z,9.50
2018-03-03T12:25:20.721Z,9.70
2018-03-03T12:27:46.741Z,9.90
2018-03-03T12:30:12.800Z,10.00
2018-03-03T12:32:38.816Z,10.00
2018-03-03T12:35:05.815Z,10.10
2018-03-03T12:37:31.863Z,10.10
2018-03-03T12:39:57.930Z,10.10
2018-03-03T12:42:23.946Z,10.10
2018-03-03T12:44:49.947Z,10.00
2018-03-03T12:47:16.701Z,10.20
2018-03-03T12:49:43.496Z,10.10
2018-03-03T12:52:10.402Z,10.20
2018-03-03T12:54:36.401Z,10.20
2018-03-03T12:57:03.310Z,10.40
2018-03-03T12:59:29.313Z,10.40
2018-03-03T13:01:55.316Z,10.60
2018-03-03T13:04:21.270Z,10.50
2018-03-03T13:06:47.405Z,10.60
2018-03-03T13:09:13.411Z,10.80
2018-03-03T13:11:39.395Z,10.80
2018-03-03T13:14:05.358Z,10.90
2018-03-03T13:16:31.314Z,11.00
2018-03-03T13:18:57.396Z,11.00
2018-03-03T13:21:23.345Z,11.20
2018-03-03T13:23:49.307Z,11.30
2018-03-03T13:26:16.013Z,11.60
2018-03-03T13:28:41.970Z,11.50
2018-03-03T13:31:07.972Z,11.80
2018-03-03T13:33:33.936Z,11.90
2018-03-03T13:36:00.101Z,12.10
2018-03-03T13:38:26.036Z,12.10
2018-03-03T13:40:51.976Z,12.20
2018-03-03T13:43:17.973Z,12.30
2018-03-03T13:45:43.928Z,12.40
2018-03-03T13:48:10.059Z,12.40
2018-03-03T13:50:35.996Z,12.20
2018-03-03T13:53:01.981Z,12.00
2018-03-03T13:55:28.699Z,12.20
2018-03-03T13:57:54.649Z,12.20
2018-03-03T14:00:21.514Z,12.30
2018-03-03T14:02:47.484Z,12.30
2018-03-03T14:05:13.595Z,12.40
2018-03-03T14:07:39.552Z,12.40
2018-03-03T14:10:05.544Z,12.50
2018-03-03T14:12:31.487Z,12.60
2018-03-03T14:14:57.416Z,12.60
2018-03-03T14:17:23.424Z,12.50
2018-03-03T14:19:49.396Z,12.30
2018-03-03T14:22:15.417Z,12.40
2018-03-03T14:24:41.397Z,12.20
2018-03-03T14:27:07.377Z,12.20
2018-03-03T14:29:33.382Z,12.20
2018-03-03T14:31:59.339Z,12.30
2018-03-03T14:34:25.436Z,12.10
2018-03-03T14:36:51.541Z,12.00
2018-03-03T14:39:18.249Z,11.70
2018-03-03T14:41:44.216Z,11.70
2018-03-03T14:44:10.221Z,11.60
2018-03-03T14:46:36.913Z,11.50
2018-03-03T14:49:02.851Z,11.50
2018-03-03T14:51:28.816Z,11.50
2018-03-03T14:53:54.780Z,11.50
2018-03-03T14:56:20.784Z,11.40
2018-03-03T14:58:46.752Z,11.20
2018-03-03T15:01:13.443Z,11.10
2018-03-03T15:03:39.409Z,11.00
2018-03-03T15:06:06.173Z,11.00
2018-03-03T15:08:32.325Z,10.90
2018-03-03T15:10:58.427Z,11.10
2018-03-03T15:13:25.172Z,11.20
2018-03-03T15:15:51.213Z,11.20
2018-03-03T15:18:17.205Z,11.20
2018-03-03T15:20:43.951Z,11.10
2018-03-03T15:23:10.652Z,10.90
2018-03-03T15:25:36.763Z,10.90
2018-03-03T15:28:02.773Z,10.80
2018-03-03T15:30:28.789Z,10.80
2018-03-03T15:32:54.761Z,10.80
2018-03-03T15:35:20.752Z,10.70
2018-03-03T15:37:46.724Z,10.70
2018-03-03T15:40:12.670Z,10.60
2018-03-03T15:42:38.673Z,10.60
2018-03-03T15:45:05.605Z,10.40
2018-03-03T15:47:31.579Z,10.40
2018-03-03T15:49:57.561Z,10.40
2018-03-03T15:52:24.252Z,10.30
2018-03-03T15:54:50.205Z,10.30
2018-03-03T15:57:16.921Z,10.20
2018-03-03T15:59:42.854Z,10.10
2018-03-03T16:02:08.975Z,10.10
2018-03-03T16:04:34.936Z,10.10
2018-03-03T16:07:00.932Z,10.00
2018-03-03T16:09:27.639Z,9.90
2018-03-03T16:11:53.624Z,9.90
2018-03-03T16:14:19.589Z,9.80
2018-03-03T16:16:45.606Z,9.80
2018-03-03T16:19:11.549Z,9.80
2018-03-03T16:21:37.568Z,9.90
2018-03-03T16:24:03.719Z,9.90
2018-03-03T16:26:29.701Z,9.80
2018-03-03T16:28:55.686Z,9.80
2018-03-03T16:31:21.672Z,9.80
2018-03-03T16:33:47.773Z,9.80
2018-03-03T16:36:13.741Z,9.70
2018-03-03T16:38:39.748Z,9.50
2018-03-03T16:41:05.708Z,9.40
2018-03-03T16:43:31.897Z,9.20
2018-03-03T16:45:57.903Z,9.10
2018-03-03T16:48:23.841Z,9.00
2018-03-03T16:50:49.924Z,8.90
2018-03-03T16:53:16.598Z,8.70
2018-03-03T16:55:42.599Z,8.70
2018-03-03T16:58:08.583Z,8.70
2018-03-03T17:00:34.584Z,8.60
2018-03-03T17:03:01.300Z,8.30
2018-03-03T17:05:27.422Z,8.30
2018-03-03T17:07:53.370Z,8.20
2018-03-03T17:10:20.095Z,7.90
2018-03-03T17:12:46.097Z,7.90
2018-03-03T17:15:12.090Z,7.80
2018-03-03T17:17:38.084Z,7.70
2018-03-03T17:20:04.790Z,7.70
2018-03-03T17:22:30.880Z,7.60
2018-03-03T17:24:56.806Z,7.70
2018-03-03T17:27:22.808Z,7.60
2018-03-03T17:29:48.785Z,7.60
2018-03-03T17:32:14.796Z,7.70
2018-03-03T17:34:40.872Z,7.70
2018-03-03T17:37:07.561Z,7.60
2018-03-03T17:39:33.581Z,7.60
2018-03-03T17:41:59.559Z,7.50
2018-03-03T17:44:25.567Z,7.50
2018-03-03T17:46:51.520Z,7.40
2018-03-03T17:49:17.537Z,7.40
2018-03-03T17:51:43.486Z,7.40
2018-03-03T17:54:09.636Z,7.30
2018-03-03T17:56:35.598Z,7.30
2018-03-03T17:59:01.553Z,7.20
2018-03-03T18:01:27.536Z,7.10
2018-03-03T18:03:54.235Z,7.20
2018-03-03T18:06:20.229Z,7.20
2018-03-03T18:08:46.182Z,7.20
2018-03-03T18:11:12.326Z,7.30
2018-03-03T18:13:39.035Z,7.30
2018-03-03T18:16:04.997Z,7.30
2018-03-03T18:18:31.708Z,7.40
2018-03-03T18:20:57.674Z,7.40
2018-03-03T18:23:23.646Z,7.50
2018-03-03T18:25:49.647Z,7.50
2018-03-03T18:28:15.994Z,7.60
2018-03-03T18:30:41.974Z,7.60
2018-03-03T18:33:08.091Z,7.60
2018-03-03T18:35:34.196Z,7.60
2018-03-03T18:38:00.168Z,7.50
2018-03-03T18:40:26.144Z,7.40
2018-03-03T18:42:52.997Z,7.40
2018-03-03T18:45:19.720Z,7.30
2018-03-03T18:47:45.706Z,7.30
2018-03-03T18:50:11.657Z,7.20
2018-03-03T18:52:37.612Z,7.20
2018-03-03T18:55:03.580Z,7.20
2018-03-03T18:57:29.555Z,7.10
2018-03-03T18:59:55.628Z,7.10
2018-03-03T19:02:21.648Z,7.00
2018-03-03T19:04:47.599Z,7.00
2018-03-03T19:07:14.356Z,7.10
2018-03-03T19:09:41.041Z,7.10
2018-03-03T19:12:07.041Z,7.20
2018-03-03T19:14:32.987Z,7.10
2018-03-03T19:16:59.028Z,7.10
2018-03-03T19:19:24.986Z,7.10
2018-03-03T19:21:51.000Z,7.10
2018-03-03T19:24:17.695Z,6.80
2018-03-03T19:26:43.693Z,6.80
2018-03-03T19:29:09.650Z,6.70
2018-03-03T19:31:35.640Z,6.70
2018-03-03T19:34:06.466Z,6.70
2018-03-03T19:36:32.438Z,6.60
2018-03-03T19:38:58.432Z,6.60
2018-03-03T19:41:24.521Z,6.50
2018-03-03T19:43:50.473Z,6.50
2018-03-03T19:46:16.467Z,6.40
2018-03-03T19:48:43.170Z,6.50
2018-03-03T19:51:09.250Z,6.50
2018-03-03T19:53:35.198Z,6.50
2018-03-03T19:56:01.190Z,6.60
2018-03-03T19:58:27.144Z,6.60
2018-03-03T20:00:53.141Z,6.60
2018-03-03T20:03:19.175Z,6.50
2018-03-03T20:05:46.000Z,6.40
2018-03-03T20:08:11.962Z,6.40
2018-03-03T20:10:37.921Z,6.40
2018-03-03T20:13:04.693Z,6.40
2018-03-03T20:15:30.621Z,6.40
2018-03-03T20:17:56.573Z,6.30
2018-03-03T20:20:22.568Z,6.30
2018-03-03T20:22:48.651Z,6.20
2018-03-03T20:25:15.408Z,6.30
2018-03-03T20:27:41.397Z,6.30
2018-03-03T20:30:07.382Z,6.30
2018-03-03T20:32:33.369Z,6.20
2018-03-03T20:35:00.077Z,6.10
2018-03-03T20:37:26.085Z,6.10
2018-03-03T20:39:52.107Z,6.10
2018-03-03T20:42:18.224Z,6.10
2018-03-03T20:44:44.193Z,6.20
2018-03-03T20:47:10.872Z,6.10
2018-03-03T20:49:37.637Z,6.10
2018-03-03T21:02:47.870Z,6.00
2018-03-03T21:05:13.837Z,5.90
2018-03-03T21:07:39.871Z,5.90
2018-03-03T21:10:06.014Z,5.90
2018-03-03T21:12:32.027Z,5.90
2018-03-03T21:14:57.977Z,5.70
2018-03-03T21:17:23.969Z,5.60
2018-03-03T21:19:49.945Z,5.50
2018-03-03T21:22:15.946Z,5.50
2018-03-03T21:24:41.895Z,5.40
2018-03-03T21:27:08.786Z,5.50
2018-03-03T21:29:34.755Z,5.50
2018-03-03T21:32:00.757Z,5.40
2018-03-03T21:34:26.723Z,5.40
2018-03-03T21:36:53.560Z,5.40
2018-03-03T21:39:20.297Z,5.40
2018-03-03T21:41:47.012Z,5.40
2018-03-03T21:44:13.109Z,5.40
2018-03-03T21:46:39.076Z,5.40
2018-03-03T21:49:06.001Z,5.30
2018-03-03T21:51:31.976Z,5.30
2018-03-03T21:53:57.973Z,5.40
2018-03-03T21:56:24.698Z,5.60
2018-03-03T21:58:50.674Z,5.60
2018-03-03T22:01:16.617Z,5.60
2018-03-03T22:03:42.577Z,5.70
2018-03-03T22:06:09.414Z,5.70
2018-03-03T22:08:35.373Z,5.70
2018-03-03T22:11:01.348Z,5.80
2018-03-03T22:13:27.318Z,5.80
2018-03-03T22:15:53.328Z,6.00
2018-03-03T22:18:19.271Z,6.00
2018-03-03T22:20:45.364Z,6.10
2018-03-03T22:23:12.073Z,5.90
2018-03-03T22:25:38.020Z,5.90
2018-03-03T22:28:04.014Z,5.80
2018-03-03T22:30:29.990Z,5.80
2018-03-03T22:32:55.987Z,5.70
2018-03-03T22:35:22.852Z,5.70
2018-03-03T22:37:48.822Z,5.70
2018-03-03T22:40:14.934Z,5.70
2018-03-03T22:42:40.905Z,5.70
2018-03-03T22:45:06.901Z,5.80
2018-03-03T22:47:32.838Z,5.80
2018-03-03T22:49:59.658Z,5.80
2018-03-03T22:52:25.605Z,5.80
2018-03-03T22:54:52.340Z,5.70
2018-03-03T22:57:18.276Z,5.70
2018-03-03T22:59:45.005Z,5.50
2018-03-03T23:02:11.741Z,5.40
2018-03-03T23:04:37.676Z,5.40
2018-03-03T23:07:04.384Z,5.40
2018-03-03T23:09:30.350Z,5.40
2018-03-03T23:11:56.428Z,5.40
2018-03-03T23:14:22.396Z,5.50
2018-03-03T23:16:48.395Z,5.50
2018-03-03T23:19:14.398Z,5.60
2018-03-03T23:21:40.376Z,5.60
2018-03-03T23:24:06.485Z,5.70
2018-03-03T23:26:32.434Z,5.70
2018-03-03T23:28:58.400Z,5.80
2018-03-03T23:31:24.363Z,5.80
2018-03-03T23:33:50.333Z,5.70
2018-03-03T23:36:16.319Z,5.70
2018-03-03T23:38:42.413Z,5.70
2018-03-03T23:41:08.440Z,5.80
2018-03-03T23:43:34.541Z,5.90
2018-03-03T23:46:00.508Z,5.90
2018-03-03T23:48:26.464Z,5.90
2018-03-03T23:50:52.450Z,5.90
2018-03-03T23:53:18.399Z,5.90
2018-03-03T23:55:44.519Z,5.90
2018-03-03T23:58:10.465Z,5.90
